Time;durP1;ratioP1;P1;durP2;ratioP2;P2;SDS_P1;SDS_P2;PMS_P1;PMS_P2;Temp;Humidity;BMP_temperature;BMP_pressure;BME280_temperature;BME280_humidity;BME280_pressure;Samples;Min_cycle;Max_cycle;Signal;HPM_P1;HPM_P2
2020/12/24 00:00:45;;;;;;;2.90;0.93;;;9.20;99.90;;;7.52;77.84;100396.84;4936703;29;20047;-40
2020/12/24 00:03:13;;;;;;;6.43;0.90;;;9.20;99.90;;;7.45;78.04;100388.66;4936608;29;20070;-40
2020/12/24 00:05:40;;;;;;;3.67;1.03;;;9.20;99.90;;;7.35;78.08;100385.50;4952733;28;20126;-40
2020/12/24 00:08:07;;;;;;;3.75;1.00;;;9.00;99.90;;;7.31;78.47;100376.91;4936686;29;20039;-40
2020/12/24 00:10:35;;;;;;;5.45;0.88;;;9.00;99.90;;;7.29;78.56;100384.41;4952272;29;20055;-40
2020/12/24 00:13:02;;;;;;;6.25;1.52;;;8.90;99.90;;;7.19;79.00;100378.53;4952521;29;20043;-40
2020/12/24 00:15:29;;;;;;;4.43;1.00;;;8.90;99.90;;;7.15;78.05;100366.38;4952188;29;20074;-40
2020/12/24 00:18:10;;;;;;;5.95;1.40;;;8.90;99.90;;;7.25;78.26;100376.88;4966549;28;20044;-40
2020/12/24 00:20:38;;;;;;;;;;;8.90;99.90;;;7.19;77.49;100383.97;4953081;29;20066;-40
2020/12/24 00:23:06;;;;;;;6.28;0.88;;;8.80;99.90;;;7.17;78.20;100369.75;4936812;29;19978;-40
2020/12/24 00:25:33;;;;;;;2.92;0.82;;;8.80;99.90;;;7.15;77.89;100377.22;4952404;29;20051;-40
2020/12/24 00:28:00;;;;;;;4.43;1.27;;;8.80;99.90;;;7.10;77.93;100375.13;4968358;28;20055;-40
2020/12/24 00:30:27;;;;;;;4.83;0.83;;;8.80;99.90;;;7.06;78.73;100376.59;4952309;29;20098;-40
2020/12/24 00:32:55;;;;;;;3.80;0.85;;;8.70;99.90;;;7.05;78.44;100370.31;4952187;28;20448;-40
2020/12/24 00:35:22;;;;;;;1.92;0.68;;;8.70;99.90;;;7.01;78.45;100374.47;4951956;29;20114;-40
2020/12/24 00:37:49;;;;;;;2.78;0.73;;;8.70;99.90;;;6.90;78.83;100356.06;4936247;29;20043;-40
2020/12/24 00:40:16;;;;;;;5.60;1.00;;;8.70;99.90;;;6.93;78.71;100368.34;4936262;29;20035;-40
2020/12/24 00:42:44;;;;;;;5.87;1.03;;;8.60;99.90;;;6.90;79.41;100367.72;4936304;29;20453;-40
2020/12/24 00:45:11;;;;;;;2.25;0.70;;;8.60;99.90;;;6.87;79.76;100370.84;4935957;29;20040;-40
2020/12/24 00:47:38;;;;;;;3.95;0.60;;;8.60;99.90;;;6.93;79.33;100366.50;4920279;29;20043;-40
2020/12/24 00:50:05;;;;;;;4.53;1.20;;;8.60;99.90;;;6.95;79.40;100363.56;4936357;29;20498;-40
2020/12/24 00:52:33;;;;;;;4.67;1.07;;;8.60;99.90;;;7.00;79.36;100350.22;4952164;29;20983;-40
2020/12/24 00:55:03;;;;;;;4.90;0.98;;;8.60;99.90;;;7.10;78.96;100347.16;4951877;29;20292;-40
2020/12/24 00:57:31;;;;;;;3.28;0.85;;;8.70;99.90;;;7.08;79.32;100349.25;4952114;29;20130;-40
2020/12/24 00:59:58;;;;;;;5.72;0.90;;;8.70;99.90;;;7.07;78.79;100343.00;4936054;29;20075;-40
2020/12/24 01:02:25;;;;;;;2.40;0.77;;;8.70;99.90;;;7.11;79.25;100348.84;4937074;29;20058;-40
2020/12/24 01:04:52;;;;;;;6.90;1.10;;;8.80;99.90;;;7.14;78.10;100354.69;4939539;29;20043;-40
2020/12/24 01:07:21;;;;;;;4.40;0.90;;;8.70;99.90;;;7.16;78.84;100351.78;4940092;29;20067;-40
2020/12/24 01:09:48;;;;;;;1.88;0.55;;;8.80;99.90;;;7.15;78.22;100342.81;4939539;29;20046;-40
2020/12/24 01:12:15;;;;;;;5.37;0.87;;;8.80;99.90;;;7.05;78.71;100334.22;4939671;29;20043;-40
2020/12/24 01:14:44;;;;;;;2.70;0.70;;;8.80;99.90;;;6.96;78.82;100336.25;4955290;29;20151;-40
2020/12/24 01:17:12;;;;;;;3.30;0.80;;;8.70;99.90;;;6.86;78.60;100333.06;4955553;28;20453;-40
2020/12/24 01:19:40;;;;;;;5.72;1.38;;;8.60;99.90;;;6.87;79.15;100318.47;4939781;29;20118;-40
2020/12/24 01:22:07;;;;;;;5.93;0.90;;;8.60;99.90;;;6.80;79.28;100310.31;4955480;28;20062;-40
2020/12/24 01:24:35;;;;;;;4.80;0.88;;;8.50;99.90;;;6.86;79.10;100316.78;4971140;28;20039;-40
2020/12/24 01:27:02;;;;;;;8.37;1.27;;;8.50;99.90;;;6.70;79.41;100320.66;4939216;29;20521;-40
2020/12/24 01:29:31;;;;;;;3.47;0.93;;;8.40;99.90;;;6.75;78.94;100320.88;4955492;29;20548;-40
2020/12/24 01:31:58;;;;;;;5.38;1.52;;;8.40;99.90;;;6.69;79.21;100333.38;4955450;28;20407;-40
2020/12/24 01:34:25;;;;;;;5.10;1.27;;;8.40;99.90;;;6.68;79.31;100326.28;4939191;29;20066;-40
2020/12/24 01:36:52;;;;;;;4.57;0.70;;;8.40;99.90;;;6.73;78.96;100333.81;4955070;29;20051;-40
2020/12/24 01:39:20;;;;;;;7.57;1.40;;;8.40;99.90;;;6.75;78.95;100324.44;4955212;29;20414;-40
2020/12/24 01:41:49;;;;;;;1.55;0.80;;;8.40;99.90;;;6.75;78.51;100318.19;4923590;29;20134;-40
2020/12/24 01:44:16;;;;;;;8.60;1.13;;;8.40;99.90;;;6.72;78.63;100324.84;4954832;29;20054;-40
2020/12/24 01:46:43;;;;;;;4.67;0.73;;;8.40;99.90;;;6.72;78.29;100329.44;4923318;29;20040;-40
2020/12/24 01:49:19;;;;;;;6.10;1.48;;;8.40;99.90;;;6.74;78.35;100322.78;4940204;29;20418;-40
2020/12/24 01:51:58;;;;;;;5.03;0.90;;;8.40;99.90;;;6.76;77.86;100331.56;4971032;28;20047;-40
2020/12/24 01:54:26;;;;;;;;;;;8.40;99.90;;;6.74;78.65;100322.78;4939337;29;20407;-40
2020/12/24 01:56:55;;;;;;;4.60;1.60;;;8.40;99.90;;;6.81;78.47;100332.81;4939009;28;19973;-40
2020/12/24 01:59:23;;;;;;;5.35;1.00;;;8.50;99.90;;;6.89;77.73;100333.50;4954971;28;20051;-40
2020/12/24 02:01:52;;;;;;;5.05;0.75;;;8.50;99.90;;;6.95;77.73;100333.72;4954935;28;20052;-40
2020/12/24 02:04:19;;;;;;;3.53;0.65;;;8.50;99.90;;;7.00;77.54;100334.81;4954501;28;20043;-40
2020/12/24 02:06:50;;;;;;;7.38;0.90;;;8.60;99.90;;;6.98;77.17;100338.75;4922997;29;20039;-40
2020/12/24 02:09:18;;;;;;;4.65;1.00;;;8.60;99.90;;;7.11;77.34;100329.84;4938821;29;20054;-40
2020/12/24 02:11:46;;;;;;;3.60;1.30;;;8.70;99.90;;;7.12;76.92;100324.22;4970460;28;20043;-40
2020/12/24 02:14:13;;;;;;;2.67;0.90;;;8.70;99.90;;;7.18;76.22;100333.44;4937436;29;20075;-40
2020/12/24 02:16:41;;;;;;;3.80;0.93;;;8.80;99.90;;;7.19;75.95;100332.41;4922849;29;20047;-40
2020/12/24 02:19:08;;;;;;;10.82;1.40;;;8.80;99.90;;;7.23;76.11;100330.97;4938618;29;20051;-40
2020/12/24 02:21:36;;;;;;;5.45;0.98;;;8.80;99.90;;;7.22;76.52;100326.56;4970389;28;20086;-40
2020/12/24 02:24:03;;;;;;;5.05;1.33;;;8.80;99.90;;;7.18;76.09;100330.72;4954258;28;20059;-40
2020/12/24 02:26:32;;;;;;;5.82;1.45;;;8.80;99.90;;;7.14;75.78;100316.72;4954313;29;20101;-40
2020/12/24 02:29:00;;;;;;;4.35;1.25;;;8.80;99.90;;;7.08;75.54;100317.53;4954247;28;20050;-40
2020/12/24 02:31:27;;;;;;;2.42;0.80;;;8.70;99.90;;;7.09;75.39;100316.50;4954562;29;20050;-40
2020/12/24 02:33:55;;;;;;;9.43;1.30;;;8.70;99.90;;;7.05;75.83;100318.75;4953911;29;20166;-40
2020/12/24 02:36:22;;;;;;;8.00;0.93;;;8.70;99.90;;;7.03;75.79;100318.13;4938473;29;20505;-40
2020/12/24 02:38:49;;;;;;;3.65;0.80;;;8.70;99.90;;;7.11;75.21;100316.28;4953958;29;20047;-40
2020/12/24 02:41:17;;;;;;;4.85;1.02;;;8.70;99.90;;;7.18;75.25;100306.31;4938083;28;20047;-40
2020/12/24 02:43:45;;;;;;;6.07;1.27;;;8.80;99.90;;;7.13;75.71;100306.91;4937794;29;20043;-40
2020/12/24 02:46:13;;;;;;;7.05;1.60;;;8.80;99.90;;;7.16;75.42;100308.38;4922771;29;20395;-40
2020/12/24 02:48:41;;;;;;;3.65;0.60;;;8.80;99.90;;;7.16;75.49;100316.50;4969885;28;20066;-40
2020/12/24 02:51:09;;;;;;;6.43;1.15;;;8.80;99.90;;;7.28;73.85;100297.75;4953854;29;20519;-40
2020/12/24 02:53:37;;;;;;;2.40;0.73;;;8.80;99.90;;;7.30;75.18;100306.56;4953905;28;20126;-40
2020/12/24 02:56:05;;;;;;;;;;;8.90;99.90;;;7.26;74.54;100307.97;4938506;29;20075;-40
2020/12/24 02:58:32;;;;;;;2.25;0.55;;;8.90;99.90;;;7.30;74.39;100312.00;4953695;29;20377;-40
2020/12/24 03:01:00;;;;;;;4.47;0.82;;;8.90;99.90;;;7.30;74.15;100309.28;4937937;29;20039;-40
2020/12/24 03:03:28;;;;;;;1.67;0.40;;;8.90;99.90;;;7.28;74.59;100306.75;4937595;29;20051;-40
2020/12/24 03:05:55;;;;;;;3.67;0.88;;;8.90;99.90;;;7.29;74.41;100313.00;4937646;29;20040;-40
2020/12/24 03:08:22;;;;;;;4.67;0.73;;;8.90;99.90;;;7.31;75.13;100305.53;4937731;28;20039;-40
2020/12/24 03:10:50;;;;;;;4.50;0.68;;;8.90;99.90;;;7.24;74.42;100310.91;4953299;29;20066;-40
2020/12/24 03:13:18;;;;;;;5.53;1.10;;;8.90;99.90;;;7.28;74.07;100308.63;4921614;29;20051;-40
2020/12/24 03:15:45;;;;;;;4.82;0.80;;;8.90;99.90;;;7.28;74.62;100311.34;4937579;29;20043;-40
2020/12/24 03:18:14;;;;;;;3.93;1.10;;;8.90;99.90;;;7.27;75.32;100305.09;4937445;29;20135;-40
2020/12/24 03:20:43;;;;;;;3.80;0.80;;;8.90;99.90;;;7.25;74.85;100312.59;4968878;28;20114;-40
2020/12/24 03:23:10;;;;;;;5.25;0.63;;;8.90;99.90;;;7.23;74.82;100309.25;4953023;29;20046;-40
2020/12/24 03:25:38;;;;;;;5.30;0.90;;;8.90;99.90;;;7.18;75.33;100307.13;4952972;28;20039;-40
2020/12/24 03:28:05;;;;;;;4.00;0.80;;;8.80;99.90;;;7.10;75.18;100303.75;4952926;29;20050;-40
2020/12/24 03:30:32;;;;;;;4.20;1.30;;;8.70;99.90;;;7.13;75.33;100308.78;4953296;29;20043;-40
2020/12/24 03:33:00;;;;;;;2.38;0.65;;;8.70;99.90;;;7.11;75.52;100306.28;4954291;28;20057;-40
2020/12/24 03:35:28;;;;;;;4.77;0.80;;;8.70;99.90;;;7.09;75.82;100305.66;4936822;29;20053;-40
2020/12/24 03:37:55;;;;;;;6.28;1.10;;;8.70;99.90;;;7.08;76.40;100289.56;4937080;29;20461;-40
2020/12/24 03:40:22;;;;;;;2.92;0.90;;;8.70;99.90;;;7.02;76.24;100296.63;4937052;29;20074;-40
2020/12/24 03:42:50;;;;;;;3.47;0.70;;;8.70;99.90;;;6.98;76.28;100285.34;4936981;29;20039;-40
2020/12/24 03:45:17;;;;;;;3.90;0.73;;;8.70;99.90;;;6.93;76.31;100281.56;4905393;29;20043;-40
2020/12/24 03:47:45;;;;;;;4.53;0.82;;;8.60;99.90;;;6.94;76.58;100284.09;4921084;29;20160;-40
2020/12/24 03:50:12;;;;;;;8.65;1.10;;;8.60;99.90;;;6.96;76.94;100282.00;4921207;29;20082;-40
2020/12/24 03:52:40;;;;;;;4.03;0.93;;;8.60;99.90;;;6.94;76.66;100278.66;4952958;28;20082;-40
2020/12/24 03:55:08;;;;;;;4.07;0.90;;;8.60;99.90;;;6.93;77.02;100277.00;4952692;29;20473;-40
2020/12/24 03:57:35;;;;;;;3.67;0.93;;;8.60;99.90;;;6.85;76.56;100272.56;4952702;28;20593;-40
2020/12/24 04:00:04;;;;;;;7.37;0.93;;;8.50;99.90;;;6.87;76.64;100277.78;4936662;28;20411;-40
2020/12/24 04:02:33;;;;;;;2.65;0.77;;;8.50;99.90;;;6.80;78.45;100279.63;4936966;29;20050;-40
2020/12/24 04:05:00;;;;;;;;;;;8.50;99.90;;;6.72;79.01;100280.63;4952961;29;20058;-40
2020/12/24 04:07:27;;;;;;;4.43;0.77;;;8.50;99.90;;;6.64;79.98;100283.50;4936813;29;19966;-40
2020/12/24 04:09:55;;;;;;;2.42;0.57;;;8.40;99.90;;;6.56;80.76;100287.22;4952637;28;20126;-40
2020/12/24 04:12:22;;;;;;;6.93;1.10;;;8.30;99.90;;;6.48;80.87;100285.50;4936314;29;20043;-40
2020/12/24 04:14:50;;;;;;;3.95;0.80;;;8.20;99.90;;;6.44;81.09;100289.63;4920633;29;20039;-40
2020/12/24 04:17:17;;;;;;;3.58;0.80;;;8.10;99.90;;;6.44;81.01;100295.06;4952335;29;20035;-40
2020/12/24 04:19:45;;;;;;;5.00;0.98;;;8.10;99.90;;;6.52;80.79;100315.75;4920793;29;20043;-40
2020/12/24 04:22:12;;;;;;;4.30;0.90;;;8.20;99.90;;;6.44;81.37;100308.59;4952364;29;20035;-40
2020/12/24 04:24:40;;;;;;;6.03;1.30;;;8.10;99.90;;;6.51;81.01;100311.38;4936010;29;20040;-40
2020/12/24 04:27:07;;;;;;;5.13;0.93;;;8.20;99.90;;;6.50;81.13;100305.13;4936262;29;20097;-40
2020/12/24 04:29:35;;;;;;;3.83;0.88;;;8.10;99.90;;;6.44;81.61;100308.59;4936793;29;20051;-40
2020/12/24 04:32:02;;;;;;;3.67;0.60;;;8.10;99.90;;;6.41;81.96;100303.59;4952181;29;20047;-40
2020/12/24 04:34:30;;;;;;;4.85;0.85;;;8.10;99.90;;;6.35;82.38;100297.06;4952368;28;20058;-40
2020/12/24 04:36:57;;;;;;;4.60;0.80;;;8.00;99.90;;;6.30;82.50;100300.41;4936830;29;20129;-40
2020/12/24 04:39:25;;;;;;;4.47;0.70;;;8.00;99.90;;;6.36;82.47;100293.31;4940206;29;20047;-40
2020/12/24 04:41:53;;;;;;;3.95;0.98;;;8.00;99.90;;;6.32;82.23;100295.63;4956253;28;20802;-40
2020/12/24 04:44:21;;;;;;;3.05;0.60;;;8.00;99.90;;;6.36;82.23;100301.47;4955980;29;20532;-40
2020/12/24 04:46:49;;;;;;;;;;;8.00;99.90;;;6.35;82.09;100301.66;4956611;28;20058;-40
2020/12/24 04:49:18;;;;;;;3.45;0.60;;;8.00;99.90;;;6.39;82.12;100305.66;4941836;28;19929;-40
2020/12/24 04:51:48;;;;;;;4.70;0.80;;;8.00;99.90;;;6.38;82.42;100309.41;4940238;28;20046;-40
2020/12/24 04:54:16;;;;;;;3.38;0.68;;;8.00;99.90;;;6.42;82.93;100303.41;4971780;28;20070;-40
2020/12/24 04:56:45;;;;;;;4.88;1.00;;;8.10;99.90;;;6.40;83.45;100302.75;4955670;28;20094;-40
2020/12/24 04:59:12;;;;;;;3.88;0.70;;;8.10;99.90;;;6.41;83.69;100307.16;4940152;29;20043;-40
2020/12/24 05:01:40;;;;;;;2.27;0.70;;;8.10;99.90;;;6.39;84.53;100308.38;4939731;29;20050;-40
2020/12/24 05:04:07;;;;;;;4.35;1.10;;;8.10;99.90;;;6.36;85.15;100297.94;4939480;29;20441;-40
2020/12/24 05:06:35;;;;;;;4.28;0.70;;;8.10;99.90;;;6.30;85.68;100294.13;4955736;29;20518;-40
2020/12/24 05:09:03;;;;;;;5.25;0.50;;;8.00;99.90;;;6.29;86.38;100289.75;4955748;29;20043;-40
2020/12/24 05:11:33;;;;;;;4.28;0.63;;;8.00;99.90;;;6.27;86.44;100294.53;4939619;29;20071;-40
2020/12/24 05:14:20;;;;;;;3.70;1.17;;;8.00;99.90;;;6.22;86.79;100286.97;4955467;29;20071;-40
2020/12/24 05:17:08;;;;;;;5.90;1.00;;;7.90;99.90;;;6.22;87.00;100297.00;4971483;28;20043;-40
2020/12/24 05:19:47;;;;;;;2.13;0.70;;;7.90;99.90;;;6.21;87.03;100279.06;4955579;29;20134;-40
2020/12/24 05:22:19;;;;;;;4.03;0.95;;;7.90;99.90;;;6.19;86.96;100288.22;4955487;29;20059;-40
2020/12/24 05:24:47;;;;;;;4.53;1.10;;;7.90;99.90;;;6.15;87.02;100286.94;4955281;28;20047;-40
2020/12/24 05:27:20;;;;;;;5.10;0.70;;;7.80;99.90;;;6.10;87.09;100289.41;4955391;29;20036;-40
2020/12/24 05:29:57;;;;;;;4.70;0.85;;;7.80;99.90;;;6.11;87.49;100291.09;4939452;29;20047;-40
2020/12/24 05:32:34;;;;;;;6.65;1.00;;;7.80;99.90;;;6.11;87.67;100290.22;4939427;29;20051;-40
2020/12/24 05:35:09;;;;;;;3.90;0.90;;;7.80;99.90;;;6.09;87.55;100290.41;4955165;29;20063;-40
2020/12/24 05:37:39;;;;;;;4.60;1.00;;;7.80;99.90;;;6.09;87.81;100287.72;4971256;28;20062;-40
2020/12/24 05:40:26;;;;;;;4.00;0.70;;;7.80;99.90;;;6.09;87.60;100290.41;4955294;29;20048;-40
2020/12/24 05:43:01;;;;;;;3.85;0.80;;;7.80;99.90;;;6.09;87.73;100284.19;4971257;28;20047;-40
2020/12/24 05:45:31;;;;;;;4.40;0.90;;;7.80;99.90;;;6.10;87.73;100284.00;4970785;28;20054;-40
2020/12/24 05:48:11;;;;;;;2.15;0.70;;;7.80;99.90;;;6.10;87.92;100281.28;4954748;28;20529;-40
2020/12/24 05:50:41;;;;;;;1.40;0.45;;;7.80;99.90;;;6.18;87.33;100286.56;4954619;29;20047;-40
2020/12/24 05:53:19;;;;;;;1.55;0.60;;;7.80;99.90;;;6.16;87.29;100285.06;4956184;28;20502;-40
2020/12/24 05:55:46;;;;;;;3.92;1.38;;;7.80;99.90;;;6.14;86.98;100284.41;4939257;29;20083;-40
2020/12/24 05:58:14;;;;;;;5.17;0.90;;;7.80;99.90;;;6.09;87.28;100282.28;4923132;29;20043;-40
2020/12/24 06:00:43;;;;;;;4.10;1.05;;;7.80;99.90;;;6.14;87.14;100284.41;4938880;29;20549;-40
2020/12/24 06:03:14;;;;;;;3.60;0.93;;;7.80;99.90;;;6.08;86.91;100286.03;4954676;29;20039;-40
2020/12/24 06:05:52;;;;;;;2.88;0.80;;;7.80;99.90;;;6.10;86.65;100288.56;4970836;28;20109;-40
2020/12/24 06:08:27;;;;;;;2.90;0.63;;;7.80;99.90;;;6.07;86.88;100295.19;4970537;28;20494;-40
2020/12/24 06:11:21;;;;;;;3.97;0.70;;;7.80;99.90;;;6.08;86.53;100301.47;4970402;28;20484;-40
2020/12/24 06:13:57;;;;;;;4.00;0.60;;;7.70;99.90;;;6.06;86.83;100293.53;4938599;29;20591;-40
2020/12/24 06:16:27;;;;;;;4.03;0.98;;;7.70;99.90;;;5.94;87.07;100289.66;4954415;29;20094;-40
2020/12/24 06:19:00;;;;;;;2.50;0.63;;;7.70;99.90;;;5.95;86.81;100294.03;4954489;29;20180;-40
2020/12/24 06:21:33;;;;;;;2.63;0.60;;;7.70;99.90;;;5.87;87.61;100295.00;4954595;29;20470;-40
2020/12/24 06:24:02;;;;;;;1.55;0.65;;;7.60;99.90;;;5.82;87.88;100292.88;4954181;29;20540;-40
2020/12/24 06:26:37;;;;;;;3.50;0.90;;;7.50;99.90;;;5.83;87.76;100299.94;4970404;28;20066;-40
2020/12/24 06:29:05;;;;;;;3.17;0.68;;;7.50;99.90;;;5.78;88.13;100299.69;4970419;28;20094;-40
2020/12/24 06:31:39;;;;;;;4.32;0.85;;;7.50;99.90;;;5.86;88.04;100302.31;4938484;29;20126;-40
2020/12/24 06:34:28;;;;;;;2.22;0.60;;;7.50;99.90;;;5.88;87.92;100305.66;4970168;28;20078;-40
2020/12/24 06:37:11;;;;;;;5.70;0.98;;;7.50;99.90;;;5.93;87.78;100305.03;4970226;28;20051;-40
2020/12/24 06:39:43;;;;;;;3.20;0.63;;;7.60;99.90;;;5.94;87.50;100300.47;4970157;28;20047;-40
2020/12/24 06:42:39;;;;;;;3.63;1.05;;;7.60;99.90;;;5.94;87.50;100304.00;4938379;29;20498;-40
2020/12/24 06:45:17;;;;;;;4.03;0.63;;;7.60;99.90;;;6.00;87.59;100302.41;4955178;28;20472;-40
2020/12/24 06:47:44;;;;;;;2.72;0.50;;;7.60;99.90;;;5.93;87.54;100306.94;4937948;29;20051;-40
2020/12/24 06:50:40;;;;;;;3.70;0.90;;;7.60;99.90;;;5.87;87.89;100312.09;4954038;29;20051;-40
2020/12/24 06:53:20;;;;;;;1.08;0.40;;;7.60;99.90;;;5.86;88.13;100320.41;4937935;29;20054;-40
2020/12/24 06:56:17;;;;;;;5.05;1.23;;;7.50;99.90;;;5.85;87.97;100324.13;4953881;29;20043;-40
2020/12/24 06:58:56;;;;;;;2.15;0.77;;;7.50;99.90;;;5.92;88.05;100324.22;4955130;28;20051;-40
2020/12/24 07:01:35;;;;;;;3.47;0.80;;;7.60;99.90;;;5.90;87.91;100327.94;4953414;28;20051;-40
2020/12/24 07:04:05;;;;;;;6.28;0.70;;;7.60;99.90;;;5.86;87.91;100334.78;4953821;28;20047;-40
2020/12/24 07:06:45;;;;;;;4.75;0.70;;;7.60;99.90;;;5.87;87.83;100344.59;4969457;28;20130;-40
2020/12/24 07:09:22;;;;;;;4.60;0.98;;;7.50;99.90;;;5.84;87.95;100350.41;4953884;29;20069;-40
2020/12/24 07:11:53;;;;;;;2.03;0.40;;;7.50;99.90;;;5.83;88.05;100350.56;4954522;28;20106;-40
2020/12/24 07:14:32;;;;;;;3.45;0.85;;;7.50;99.90;;;5.83;88.25;100348.69;4953236;29;20158;-40
2020/12/24 07:17:20;;;;;;;3.42;0.65;;;7.50;99.90;;;5.81;88.60;100341.81;4969484;28;20094;-40
2020/12/24 07:19:50;;;;;;;1.33;0.70;;;7.50;99.90;;;5.79;88.69;100349.28;4953447;29;20051;-40
2020/12/24 07:22:21;;;;;;;3.47;0.77;;;7.50;99.90;;;5.77;89.26;100352.16;4953296;29;20078;-40
2020/12/24 07:24:58;;;;;;;2.10;0.60;;;7.50;99.90;;;5.78;89.43;100355.72;4953179;29;20122;-40
2020/12/24 07:27:26;;;;;;;3.55;0.70;;;7.50;99.90;;;5.79;89.44;100366.34;4969434;28;20073;-40
2020/12/24 07:29:53;;;;;;;3.10;0.70;;;7.50;99.90;;;5.81;89.56;100366.16;4954620;28;20440;-40
2020/12/24 07:32:21;;;;;;;2.40;0.50;;;7.50;99.90;;;5.82;89.39;100370.56;4937312;29;20094;-40
2020/12/24 07:34:48;;;;;;;5.32;1.52;;;7.50;99.90;;;5.86;89.13;100370.00;4952989;28;20039;-40
2020/12/24 07:37:15;;;;;;;3.42;0.65;;;7.50;99.90;;;5.84;89.14;100377.47;4969033;28;20437;-40
2020/12/24 07:39:52;;;;;;;2.10;0.60;;;7.50;99.90;;;5.89;89.05;100379.56;4953256;28;20482;-40
2020/12/24 07:42:28;;;;;;;3.15;0.52;;;7.50;99.90;;;5.94;89.04;100376.31;4953000;29;20074;-40
2020/12/24 07:44:57;;;;;;;3.80;0.77;;;7.60;99.90;;;5.95;88.87;100367.16;4968606;28;20085;-40
2020/12/24 07:47:25;;;;;;;4.40;0.60;;;7.60;99.90;;;5.98;88.90;100383.00;4952840;29;20043;-40
2020/12/24 07:49:52;;;;;;;6.50;0.82;;;7.60;99.90;;;6.00;88.67;100381.78;4968819;28;20047;-40
2020/12/24 07:52:20;;;;;;;3.83;0.93;;;7.60;99.90;;;6.03;88.54;100375.16;4968806;28;20047;-40
2020/12/24 07:54:47;;;;;;;2.67;0.68;;;7.70;99.90;;;6.07;88.06;100379.16;4953047;28;20452;-40
2020/12/24 07:57:24;;;;;;;3.50;0.57;;;7.70;99.90;;;6.04;88.12;100385.81;4921310;29;20102;-40
2020/12/24 08:00:01;;;;;;;2.28;0.50;;;7.70;99.90;;;6.04;88.42;100393.09;4937054;29;20051;-40
2020/12/24 08:02:31;;;;;;;1.60;0.60;;;7.70;99.90;;;6.05;88.61;100400.19;4953898;28;20043;-40
2020/12/24 08:04:58;;;;;;;3.63;0.80;;;7.70;99.90;;;6.08;88.58;100418.75;4968355;28;20043;-40
2020/12/24 08:07:26;;;;;;;7.03;2.83;;;7.70;99.90;;;5.67;86.04;100420.16;4953869;29;20456;-40
2020/12/24 08:09:53;;;;;;;5.05;2.78;;;7.50;99.90;;;5.40;87.03;100427.94;4953870;28;20123;-40
2020/12/24 08:12:23;;;;;;;7.15;3.10;;;7.30;99.90;;;5.14;87.37;100441.94;4951467;28;20059;-40
2020/12/24 08:14:51;;;;;;;4.22;2.03;;;7.00;99.90;;;4.86;88.35;100445.28;4968464;28;20051;-40
2020/12/24 08:17:28;;;;;;;2.75;1.58;;;6.70;99.90;;;4.57;88.17;100455.84;4968468;28;20134;-40
2020/12/24 08:20:10;;;;;;;2.20;1.30;;;6.50;99.90;;;4.46;88.11;100467.91;4952625;29;20129;-40
2020/12/24 08:22:56;;;;;;;2.10;1.40;;;6.40;99.90;;;4.35;88.90;100475.59;4952467;29;20090;-40
2020/12/24 08:25:24;;;;;;;2.90;1.60;;;6.20;99.90;;;4.17;89.99;100476.75;4953655;28;20109;-40
2020/12/24 08:27:52;;;;;;;2.85;1.40;;;6.10;99.90;;;4.18;89.54;100481.94;4936227;29;20126;-39
2020/12/24 08:30:20;;;;;;;2.03;1.25;;;6.00;99.90;;;4.00;89.23;100503.00;4953690;28;20070;-40
2020/12/24 08:32:48;;;;;;;1.60;1.10;;;5.80;99.90;;;3.86;88.31;100504.59;4952415;29;20067;-40
2020/12/24 08:35:15;;;;;;;1.75;1.10;;;5.70;99.90;;;3.71;87.94;100513.41;4936111;29;20039;-40
2020/12/24 08:37:43;;;;;;;1.55;1.00;;;5.60;99.90;;;3.74;89.26;100515.75;4968299;28;20063;-40
2020/12/24 08:40:24;;;;;;;2.10;1.23;;;5.60;99.90;;;3.69;88.91;100517.28;4952151;29;20655;-40
2020/12/24 08:42:58;;;;;;;2.30;1.08;;;5.50;99.90;;;3.66;89.53;100523.91;4952312;28;20047;-40
2020/12/24 08:45:27;;;;;;;2.03;1.20;;;5.50;99.90;;;3.60;88.79;100524.59;4936141;29;20098;-40
2020/12/24 08:47:55;;;;;;;2.33;1.35;;;5.40;99.90;;;3.57;88.68;100546.50;4967926;28;20142;-40
2020/12/24 08:50:33;;;;;;;2.83;1.45;;;5.40;99.90;;;3.53;88.98;100546.03;4936218;29;20047;-40
2020/12/24 08:53:04;;;;;;;3.20;1.95;;;5.40;99.90;;;3.56;89.09;100553.78;4936306;29;20067;-40
2020/12/24 08:55:33;;;;;;;4.13;1.80;;;5.40;99.90;;;3.49;88.79;100552.78;4951903;29;20051;-40
2020/12/24 08:58:00;;;;;;;3.78;2.05;;;5.40;99.90;;;3.57;89.58;100562.69;4967925;28;20081;-40
2020/12/24 09:00:28;;;;;;;2.65;1.70;;;5.40;99.90;;;3.53;88.56;100559.50;4967994;28;20051;-40
2020/12/24 09:02:55;;;;;;;2.95;1.80;;;5.40;99.90;;;3.55;89.26;100570.97;4951954;29;20126;-40
2020/12/24 09:05:25;;;;;;;3.58;1.80;;;5.40;99.90;;;3.51;88.35;100583.13;4967727;28;20048;-40
2020/12/24 09:07:53;;;;;;;3.22;1.50;;;5.30;99.90;;;3.44;88.79;100576.72;4952013;29;20055;-40
2020/12/24 09:10:27;;;;;;;2.40;1.38;;;5.30;99.90;;;3.44;88.76;100584.81;4967570;28;20577;-40
2020/12/24 09:12:58;;;;;;;3.72;1.42;;;5.20;99.90;;;3.42;89.46;100590.38;4967986;28;20521;-40
2020/12/24 09:15:28;;;;;;;1.67;0.90;;;5.30;99.90;;;3.41;88.82;100598.63;4953134;28;20067;-40
2020/12/24 09:18:00;;;;;;;2.08;0.73;;;5.30;99.90;;;3.38;88.14;100599.84;4953093;28;20040;-40
2020/12/24 09:20:31;;;;;;;3.03;0.90;;;5.20;99.90;;;3.33;87.47;100614.84;4935946;29;20098;-40
2020/12/24 09:23:12;;;;;;;1.33;0.60;;;5.20;99.90;;;3.41;88.87;100625.59;4953620;28;20115;-40
2020/12/24 09:25:43;;;;;;;0.90;0.70;;;5.20;99.90;;;3.37;88.96;100629.66;4955472;28;20082;-40
2020/12/24 09:28:22;;;;;;;1.27;0.73;;;5.20;99.90;;;3.38;88.96;100636.75;4971581;28;20158;-40
2020/12/24 09:30:53;;;;;;;1.88;0.60;;;5.20;99.90;;;3.41;88.86;100641.78;4971432;28;20135;-40
2020/12/24 09:33:21;;;;;;;1.33;0.75;;;5.20;99.90;;;3.43;89.71;100655.94;4971212;28;20106;-40
2020/12/24 09:35:49;;;;;;;1.48;0.50;;;5.20;99.90;;;3.37;88.44;100645.84;4971030;28;20514;-40
2020/12/24 09:38:20;;;;;;;1.23;0.60;;;5.20;99.90;;;3.40;88.88;100661.69;4970715;28;20613;-40
2020/12/24 09:40:47;;;;;;;0.52;0.40;;;5.20;99.90;;;3.39;88.54;100657.31;4971157;28;20045;-40
2020/12/24 09:43:14;;;;;;;1.05;0.47;;;5.20;99.90;;;3.37;88.35;100678.22;4971178;28;20094;-40
2020/12/24 09:45:41;;;;;;;1.13;0.68;;;5.20;99.90;;;3.33;88.51;100687.66;4971190;28;20081;-40
2020/12/24 09:48:08;;;;;;;1.30;0.68;;;5.10;99.90;;;3.33;88.32;100687.66;4956148;28;20086;-40
2020/12/24 09:50:37;;;;;;;0.88;0.60;;;5.10;99.90;;;3.36;88.72;100688.16;4955050;28;20047;-40
2020/12/24 09:53:05;;;;;;;0.88;0.50;;;5.20;99.90;;;3.47;88.98;100695.09;4955409;28;20094;-40
2020/12/24 09:55:32;;;;;;;1.15;0.50;;;5.20;99.90;;;3.49;88.90;100698.44;4954809;28;20043;-40
2020/12/24 09:57:59;;;;;;;3.65;0.77;;;5.20;99.90;;;3.56;88.60;100707.53;4954800;29;20106;-40
2020/12/24 10:00:27;;;;;;;1.67;0.60;;;5.30;99.90;;;3.58;89.10;100713.63;4956006;29;20051;-40
2020/12/24 10:02:54;;;;;;;2.03;0.77;;;5.30;99.90;;;3.54;87.41;100722.22;4970953;28;20071;-40
2020/12/24 10:05:22;;;;;;;1.23;0.70;;;5.30;99.90;;;3.52;88.33;100729.63;4956121;28;20061;-40
2020/12/24 10:07:51;;;;;;;1.50;0.90;;;5.30;99.90;;;3.49;87.91;100738.91;4954672;29;20506;-40
2020/12/24 10:10:18;;;;;;;2.17;1.02;;;5.30;99.90;;;3.57;88.90;100749.69;4970229;28;20095;-40
2020/12/24 10:12:45;;;;;;;1.98;1.10;;;5.30;99.90;;;3.60;88.46;100751.22;4939018;29;20131;-40
2020/12/24 10:15:12;;;;;;;2.55;1.38;;;5.40;99.90;;;3.56;88.43;100758.81;4970439;28;20039;-40
2020/12/24 10:17:39;;;;;;;2.78;1.40;;;5.30;99.90;;;3.60;88.09;100753.94;4954344;29;20043;-40
2020/12/24 10:20:07;;;;;;;2.17;1.20;;;5.40;99.90;;;3.58;88.45;100761.31;4954431;29;20147;-40
2020/12/24 10:22:34;;;;;;;4.10;2.20;;;5.40;99.90;;;3.58;87.88;100759.47;4970300;28;20113;-40
2020/12/24 10:25:02;;;;;;;3.38;2.00;;;5.30;99.90;;;3.54;86.75;100757.28;4954230;29;20051;-40
2020/12/24 10:27:29;;;;;;;4.80;2.42;;;5.30;99.90;;;3.51;86.15;100758.47;4954354;28;20042;-40
2020/12/24 10:29:56;;;;;;;4.78;2.50;;;5.30;99.90;;;3.49;86.31;100755.09;4970301;28;20043;-40
2020/12/24 10:32:23;;;;;;;5.85;2.78;;;5.30;99.90;;;3.63;87.03;100752.72;4955653;28;20063;-40
2020/12/24 10:34:51;;;;;;;6.28;3.25;;;5.40;99.90;;;3.51;86.91;100771.97;4953467;28;20051;-40
2020/12/24 10:37:18;;;;;;;9.20;4.07;;;5.30;99.90;;;3.52;86.20;100768.25;4970145;28;20051;-40
2020/12/24 10:39:46;;;;;;;9.93;4.27;;;5.40;99.90;;;3.56;86.01;100776.84;4970354;28;20070;-40